Pagrindinis puslapis
METAR-TAF:

METAR-TAF

Oro uostai :

Mersing, Malaizija

platuma: 02-23-00N, ilguma: 103-51-34E, Aukštis: 3 m

Dabartinis oras

Ataskaita buvo paskelbta 55 minutes, ne 06:00 UTC
Vėjas 12 kt iš Šiaurės su gūsio iki 23 kt, svyruoja nuo Vakarų/Šiaurės Vakarų ir Rytų/Šiaurės Rytų
Temperatūra 30°C
Drėgmė 94%
Slėgis 1013 hPa
Matomumas 10 km arba daugiau
Išsisklaidę debesys ne aukštis 2000 ft

METAR: WMAU 230600Z 36012G23KT 290V060 9999 SCT020 30/29 Q1013

Laikas: 14:55 (06:55 UTC)


TAF: trūkstamas

Orai ataskaitas ir orų prognozės (METAR, TAF).

turimą stotys yra geltonos ir raudonos taškus žemėlapyje.

Perkelti pele per norėdami pamatyti stoties vardą.

Tada spustelėkite, norėdami matyti oro stebėjimo ir prognozės.

Norėdami pakeisti žemėlapį: spustelėkite ant žalios mygtukų su juodo kryžiaus žemyn,; žalią mygtuką su brūkšneliu, jei norite nutolinti; arba žalių rodyklių gretimoms žemėlapius.


METAR-TAF: